sensor_id;sensor_type;location;lat;lon;timestamp;P1;durP1;ratioP1;P2;durP2;ratioP2
15077;SDS011;7638;49.760;8.646;2023-04-03T00:01:35;2.07;;;1.87;;
15077;SDS011;7638;49.760;8.646;2023-04-03T00:04:03;3.00;;;1.90;;
15077;SDS011;7638;49.760;8.646;2023-04-03T00:06:30;2.13;;;1.77;;
15077;SDS011;7638;49.760;8.646;2023-04-03T00:08:56;2.43;;;2.23;;
15077;SDS011;7638;49.760;8.646;2023-04-03T00:11:22;1.90;;;1.70;;
15077;SDS011;7638;49.760;8.646;2023-04-03T00:13:48;3.77;;;2.57;;
15077;SDS011;7638;49.760;8.646;2023-04-03T00:16:14;3.53;;;1.80;;
15077;SDS011;7638;49.760;8.646;2023-04-03T00:18:40;1.97;;;1.67;;
15077;SDS011;7638;49.760;8.646;2023-04-03T00:21:07;3.20;;;2.10;;
15077;SDS011;7638;49.760;8.646;2023-04-03T00:23:33;2.90;;;1.83;;
15077;SDS011;7638;49.760;8.646;2023-04-03T00:26:00;3.93;;;2.00;;
15077;SDS011;7638;49.760;8.646;2023-04-03T00:28:26;2.67;;;2.03;;
15077;SDS011;7638;49.760;8.646;2023-04-03T00:30:52;2.43;;;2.00;;
15077;SDS011;7638;49.760;8.646;2023-04-03T00:33:18;2.10;;;1.90;;
15077;SDS011;7638;49.760;8.646;2023-04-03T00:35:49;2.93;;;1.83;;
15077;SDS011;7638;49.760;8.646;2023-04-03T00:38:15;2.70;;;2.23;;
15077;SDS011;7638;49.760;8.646;2023-04-03T00:40:42;1.73;;;1.60;;
15077;SDS011;7638;49.760;8.646;2023-04-03T00:43:13;5.73;;;2.30;;
15077;SDS011;7638;49.760;8.646;2023-04-03T00:45:40;3.93;;;2.10;;
15077;SDS011;7638;49.760;8.646;2023-04-03T00:48:08;5.77;;;2.47;;
15077;SDS011;7638;49.760;8.646;2023-04-03T00:50:39;5.23;;;2.27;;
15077;SDS011;7638;49.760;8.646;2023-04-03T00:53:06;2.33;;;1.97;;
15077;SDS011;7638;49.760;8.646;2023-04-03T00:55:34;3.60;;;1.90;;
15077;SDS011;7638;49.760;8.646;2023-04-03T00:58:01;4.53;;;1.90;;
15077;SDS011;7638;49.760;8.646;2023-04-03T01:00:27;2.17;;;1.53;;
15077;SDS011;7638;49.760;8.646;2023-04-03T01:02:54;2.00;;;1.90;;
15077;SDS011;7638;49.760;8.646;2023-04-03T01:05:20;3.37;;;2.30;;
15077;SDS011;7638;49.760;8.646;2023-04-03T01:07:46;1.83;;;1.70;;
15077;SDS011;7638;49.760;8.646;2023-04-03T01:10:14;2.07;;;1.60;;
15077;SDS011;7638;49.760;8.646;2023-04-03T01:12:42;2.67;;;2.33;;
15077;SDS011;7638;49.760;8.646;2023-04-03T01:15:10;2.43;;;2.13;;
15077;SDS011;7638;49.760;8.646;2023-04-03T01:17:38;3.50;;;1.80;;
15077;SDS011;7638;49.760;8.646;2023-04-03T01:20:24;1.70;;;1.60;;
15077;SDS011;7638;49.760;8.646;2023-04-03T01:25:37;2.87;;;2.00;;
15077;SDS011;7638;49.760;8.646;2023-04-03T01:28:07;3.53;;;1.70;;
15077;SDS011;7638;49.760;8.646;2023-04-03T01:30:39;3.07;;;2.17;;
15077;SDS011;7638;49.760;8.646;2023-04-03T01:33:07;1.80;;;1.70;;
15077;SDS011;7638;49.760;8.646;2023-04-03T01:35:33;2.73;;;2.43;;
15077;SDS011;7638;49.760;8.646;2023-04-03T01:37:58;2.30;;;2.10;;
15077;SDS011;7638;49.760;8.646;2023-04-03T01:40:25;2.23;;;1.93;;
15077;SDS011;7638;49.760;8.646;2023-04-03T01:42:51;3.63;;;2.37;;
15077;SDS011;7638;49.760;8.646;2023-04-03T01:45:17;1.87;;;1.60;;
15077;SDS011;7638;49.760;8.646;2023-04-03T01:47:43;2.30;;;2.10;;
15077;SDS011;7638;49.760;8.646;2023-04-03T01:50:12;3.23;;;2.17;;
15077;SDS011;7638;49.760;8.646;2023-04-03T01:52:38;5.80;;;2.63;;
15077;SDS011;7638;49.760;8.646;2023-04-03T01:55:04;2.33;;;2.13;;
15077;SDS011;7638;49.760;8.646;2023-04-03T01:57:30;2.03;;;1.80;;
15077;SDS011;7638;49.760;8.646;2023-04-03T01:59:56;2.23;;;2.03;;
15077;SDS011;7638;49.760;8.646;2023-04-03T02:02:22;2.03;;;1.83;;
15077;SDS011;7638;49.760;8.646;2023-04-03T02:04:49;2.17;;;1.97;;
15077;SDS011;7638;49.760;8.646;2023-04-03T02:07:14;2.60;;;1.97;;
15077;SDS011;7638;49.760;8.646;2023-04-03T02:09:40;1.97;;;1.77;;
15077;SDS011;7638;49.760;8.646;2023-04-03T02:12:06;2.03;;;1.73;;
15077;SDS011;7638;49.760;8.646;2023-04-03T02:14:32;2.50;;;1.77;;
15077;SDS011;7638;49.760;8.646;2023-04-03T02:17:00;3.00;;;1.90;;
15077;SDS011;7638;49.760;8.646;2023-04-03T02:19:26;4.47;;;2.00;;
15077;SDS011;7638;49.760;8.646;2023-04-03T02:21:52;2.37;;;1.80;;
15077;SDS011;7638;49.760;8.646;2023-04-03T02:24:18;2.20;;;1.67;;
15077;SDS011;7638;49.760;8.646;2023-04-03T02:26:44;2.57;;;1.80;;
15077;SDS011;7638;49.760;8.646;2023-04-03T02:29:10;6.27;;;1.93;;
15077;SDS011;7638;49.760;8.646;2023-04-03T02:31:36;4.80;;;1.93;;
15077;SDS011;7638;49.760;8.646;2023-04-03T02:34:02;3.87;;;2.43;;
15077;SDS011;7638;49.760;8.646;2023-04-03T02:36:28;2.33;;;2.03;;
15077;SDS011;7638;49.760;8.646;2023-04-03T02:38:56;2.50;;;1.83;;
15077;SDS011;7638;49.760;8.646;2023-04-03T02:41:22;2.30;;;2.10;;
15077;SDS011;7638;49.760;8.646;2023-04-03T02:43:50;2.63;;;1.93;;
15077;SDS011;7638;49.760;8.646;2023-04-03T02:46:16;3.77;;;2.60;;
15077;SDS011;7638;49.760;8.646;2023-04-03T02:48:42;4.17;;;2.03;;
15077;SDS011;7638;49.760;8.646;2023-04-03T02:51:11;3.60;;;2.10;;
15077;SDS011;7638;49.760;8.646;2023-04-03T02:53:37;2.43;;;2.20;;
15077;SDS011;7638;49.760;8.646;2023-04-03T02:56:03;2.37;;;1.83;;
15077;SDS011;7638;49.760;8.646;2023-04-03T02:58:30;3.80;;;1.73;;
15077;SDS011;7638;49.760;8.646;2023-04-03T03:00:56;2.23;;;1.87;;
15077;SDS011;7638;49.760;8.646;2023-04-03T03:03:22;2.10;;;1.90;;
15077;SDS011;7638;49.760;8.646;2023-04-03T03:05:48;5.33;;;1.70;;
15077;SDS011;7638;49.760;8.646;2023-04-03T03:08:14;3.17;;;1.70;;
15077;SDS011;7638;49.760;8.646;2023-04-03T03:10:40;5.07;;;2.03;;
15077;SDS011;7638;49.760;8.646;2023-04-03T03:13:06;4.70;;;2.43;;
15077;SDS011;7638;49.760;8.646;2023-04-03T03:15:32;2.10;;;1.90;;
15077;SDS011;7638;49.760;8.646;2023-04-03T03:17:58;3.53;;;1.90;;
15077;SDS011;7638;49.760;8.646;2023-04-03T03:20:24;2.07;;;1.87;;
15077;SDS011;7638;49.760;8.646;2023-04-03T03:22:50;3.33;;;2.00;;
15077;SDS011;7638;49.760;8.646;2023-04-03T03:25:16;2.43;;;2.00;;
15077;SDS011;7638;49.760;8.646;2023-04-03T03:27:42;2.53;;;1.80;;
15077;SDS011;7638;49.760;8.646;2023-04-03T03:30:08;3.07;;;2.00;;
15077;SDS011;7638;49.760;8.646;2023-04-03T03:32:35;4.00;;;1.67;;
15077;SDS011;7638;49.760;8.646;2023-04-03T03:35:01;2.70;;;2.07;;
15077;SDS011;7638;49.760;8.646;2023-04-03T03:37:27;2.07;;;1.73;;
15077;SDS011;7638;49.760;8.646;2023-04-03T03:39:53;5.00;;;2.20;;
15077;SDS011;7638;49.760;8.646;2023-04-03T03:42:19;2.87;;;2.57;;
15077;SDS011;7638;49.760;8.646;2023-04-03T03:44:45;3.23;;;2.57;;
15077;SDS011;7638;49.760;8.646;2023-04-03T03:47:11;4.70;;;2.20;;
15077;SDS011;7638;49.760;8.646;2023-04-03T03:49:37;5.47;;;1.90;;
15077;SDS011;7638;49.760;8.646;2023-04-03T03:52:03;2.53;;;2.20;;
15077;SDS011;7638;49.760;8.646;2023-04-03T03:54:29;3.03;;;1.83;;
15077;SDS011;7638;49.760;8.646;2023-04-03T03:56:55;2.23;;;1.73;;
15077;SDS011;7638;49.760;8.646;2023-04-03T03:59:21;1.70;;;1.60;;
15077;SDS011;7638;49.760;8.646;2023-04-03T04:01:48;2.80;;;1.90;;
15077;SDS011;7638;49.760;8.646;2023-04-03T04:04:15;1.73;;;1.60;;
15077;SDS011;7638;49.760;8.646;2023-04-03T04:06:41;2.97;;;1.77;;
15077;SDS011;7638;49.760;8.646;2023-04-03T04:09:08;2.67;;;2.10;;
15077;SDS011;7638;49.760;8.646;2023-04-03T04:11:34;3.50;;;2.20;;
15077;SDS011;7638;49.760;8.646;2023-04-03T04:14:00;1.73;;;1.60;;
15077;SDS011;7638;49.760;8.646;2023-04-03T04:16:26;2.50;;;1.90;;
15077;SDS011;7638;49.760;8.646;2023-04-03T04:18:52;2.60;;;2.23;;
15077;SDS011;7638;49.760;8.646;2023-04-03T04:21:18;3.33;;;1.93;;
15077;SDS011;7638;49.760;8.646;2023-04-03T04:23:44;2.20;;;1.93;;
15077;SDS011;7638;49.760;8.646;2023-04-03T04:26:10;4.10;;;1.90;;
15077;SDS011;7638;49.760;8.646;2023-04-03T04:28:36;4.00;;;1.70;;
15077;SDS011;7638;49.760;8.646;2023-04-03T04:31:02;1.70;;;1.53;;
15077;SDS011;7638;49.760;8.646;2023-04-03T04:33:28;4.87;;;2.13;;
15077;SDS011;7638;49.760;8.646;2023-04-03T04:35:54;4.50;;;2.20;;
15077;SDS011;7638;49.760;8.646;2023-04-03T04:38:20;6.53;;;2.30;;
15077;SDS011;7638;49.760;8.646;2023-04-03T04:40:47;3.40;;;2.10;;
15077;SDS011;7638;49.760;8.646;2023-04-03T04:43:13;6.13;;;1.80;;
15077;SDS011;7638;49.760;8.646;2023-04-03T04:45:40;3.73;;;2.10;;
15077;SDS011;7638;49.760;8.646;2023-04-03T04:48:06;4.53;;;2.03;;
15077;SDS011;7638;49.760;8.646;2023-04-03T04:50:32;7.03;;;2.00;;
15077;SDS011;7638;49.760;8.646;2023-04-03T04:52:58;3.73;;;1.80;;
15077;SDS011;7638;49.760;8.646;2023-04-03T04:55:24;4.67;;;1.53;;
15077;SDS011;7638;49.760;8.646;2023-04-03T04:57:50;1.90;;;1.70;;
15077;SDS011;7638;49.760;8.646;2023-04-03T05:00:16;2.27;;;1.90;;
15077;SDS011;7638;49.760;8.646;2023-04-03T05:02:43;2.30;;;1.47;;
15077;SDS011;7638;49.760;8.646;2023-04-03T05:05:09;3.57;;;1.77;;
15077;SDS011;7638;49.760;8.646;2023-04-03T05:07:35;2.50;;;1.90;;
15077;SDS011;7638;49.760;8.646;2023-04-03T05:10:01;2.53;;;2.33;;
15077;SDS011;7638;49.760;8.646;2023-04-03T05:12:28;3.07;;;2.00;;
15077;SDS011;7638;49.760;8.646;2023-04-03T05:14:54;4.37;;;1.90;;
15077;SDS011;7638;49.760;8.646;2023-04-03T05:17:20;5.10;;;1.97;;
15077;SDS011;7638;49.760;8.646;2023-04-03T05:19:46;2.27;;;2.07;;
15077;SDS011;7638;49.760;8.646;2023-04-03T05:22:12;4.30;;;1.83;;
15077;SDS011;7638;49.760;8.646;2023-04-03T05:24:38;2.20;;;1.60;;
15077;SDS011;7638;49.760;8.646;2023-04-03T05:27:04;5.47;;;2.30;;
15077;SDS011;7638;49.760;8.646;2023-04-03T05:29:30;5.03;;;1.77;;
15077;SDS011;7638;49.760;8.646;2023-04-03T05:31:56;3.20;;;2.30;;
15077;SDS011;7638;49.760;8.646;2023-04-03T05:34:22;1.87;;;1.30;;
15077;SDS011;7638;49.760;8.646;2023-04-03T05:36:48;3.60;;;2.37;;
15077;SDS011;7638;49.760;8.646;2023-04-03T05:39:14;5.37;;;2.07;;
15077;SDS011;7638;49.760;8.646;2023-04-03T05:41:40;4.57;;;2.23;;
15077;SDS011;7638;49.760;8.646;2023-04-03T05:44:06;6.57;;;1.80;;
15077;SDS011;7638;49.760;8.646;2023-04-03T05:46:32;4.50;;;1.80;;
15077;SDS011;7638;49.760;8.646;2023-04-03T05:48:58;3.20;;;1.70;;
15077;SDS011;7638;49.760;8.646;2023-04-03T05:51:25;2.90;;;1.70;;
15077;SDS011;7638;49.760;8.646;2023-04-03T05:53:56;2.10;;;1.50;;
15077;SDS011;7638;49.760;8.646;2023-04-03T05:56:24;4.87;;;1.57;;
15077;SDS011;7638;49.760;8.646;2023-04-03T05:58:50;2.60;;;1.70;;
15077;SDS011;7638;49.760;8.646;2023-04-03T06:01:16;1.57;;;1.47;;
15077;SDS011;7638;49.760;8.646;2023-04-03T06:03:42;3.03;;;1.87;;
15077;SDS011;7638;49.760;8.646;2023-04-03T06:06:10;2.77;;;1.60;;
15077;SDS011;7638;49.760;8.646;2023-04-03T06:08:37;2.70;;;2.10;;
15077;SDS011;7638;49.760;8.646;2023-04-03T06:11:04;4.90;;;1.90;;
15077;SDS011;7638;49.760;8.646;2023-04-03T06:13:30;2.33;;;1.50;;
15077;SDS011;7638;49.760;8.646;2023-04-03T06:15:56;2.83;;;1.90;;
15077;SDS011;7638;49.760;8.646;2023-04-03T06:18:23;3.37;;;2.07;;
15077;SDS011;7638;49.760;8.646;2023-04-03T06:20:49;3.23;;;1.60;;
15077;SDS011;7638;49.760;8.646;2023-04-03T06:23:15;3.57;;;1.87;;
15077;SDS011;7638;49.760;8.646;2023-04-03T06:25:41;3.10;;;2.03;;
15077;SDS011;7638;49.760;8.646;2023-04-03T06:28:08;8.10;;;2.03;;
15077;SDS011;7638;49.760;8.646;2023-04-03T06:30:35;5.70;;;2.03;;
15077;SDS011;7638;49.760;8.646;2023-04-03T06:33:01;4.13;;;1.83;;
15077;SDS011;7638;49.760;8.646;2023-04-03T06:35:28;3.20;;;2.20;;
15077;SDS011;7638;49.760;8.646;2023-04-03T06:37:55;4.70;;;1.83;;
15077;SDS011;7638;49.760;8.646;2023-04-03T06:40:23;4.93;;;2.20;;
15077;SDS011;7638;49.760;8.646;2023-04-03T06:42:50;4.10;;;2.50;;
15077;SDS011;7638;49.760;8.646;2023-04-03T06:45:16;5.67;;;3.10;;
15077;SDS011;7638;49.760;8.646;2023-04-03T06:47:42;6.57;;;3.00;;
15077;SDS011;7638;49.760;8.646;2023-04-03T06:50:09;3.63;;;2.03;;
15077;SDS011;7638;49.760;8.646;2023-04-03T06:52:36;3.77;;;2.00;;
15077;SDS011;7638;49.760;8.646;2023-04-03T06:55:04;4.60;;;2.17;;
15077;SDS011;7638;49.760;8.646;2023-04-03T06:57:30;3.33;;;1.80;;
15077;SDS011;7638;49.760;8.646;2023-04-03T06:59:57;2.33;;;1.60;;
15077;SDS011;7638;49.760;8.646;2023-04-03T07:02:23;6.47;;;2.00;;
15077;SDS011;7638;49.760;8.646;2023-04-03T07:04:49;9.33;;;2.57;;
15077;SDS011;7638;49.760;8.646;2023-04-03T07:07:15;5.80;;;2.63;;
15077;SDS011;7638;49.760;8.646;2023-04-03T07:09:42;3.83;;;1.90;;
15077;SDS011;7638;49.760;8.646;2023-04-03T07:12:08;3.17;;;2.37;;
15077;SDS011;7638;49.760;8.646;2023-04-03T07:14:34;7.00;;;1.80;;
15077;SDS011;7638;49.760;8.646;2023-04-03T07:17:01;4.90;;;2.93;;
15077;SDS011;7638;49.760;8.646;2023-04-03T07:19:27;8.50;;;2.73;;
15077;SDS011;7638;49.760;8.646;2023-04-03T07:21:53;1.97;;;1.60;;
15077;SDS011;7638;49.760;8.646;2023-04-03T07:24:20;4.87;;;2.03;;
15077;SDS011;7638;49.760;8.646;2023-04-03T07:26:49;6.40;;;2.57;;
15077;SDS011;7638;49.760;8.646;2023-04-03T07:29:14;4.80;;;2.10;;
15077;SDS011;7638;49.760;8.646;2023-04-03T07:31:41;6.77;;;1.90;;
15077;SDS011;7638;49.760;8.646;2023-04-03T07:34:07;5.30;;;2.10;;
15077;SDS011;7638;49.760;8.646;2023-04-03T07:36:33;4.17;;;1.90;;
15077;SDS011;7638;49.760;8.646;2023-04-03T07:38:59;7.67;;;1.80;;
15077;SDS011;7638;49.760;8.646;2023-04-03T07:41:25;3.93;;;1.90;;
15077;SDS011;7638;49.760;8.646;2023-04-03T07:43:51;5.37;;;1.70;;
15077;SDS011;7638;49.760;8.646;2023-04-03T07:46:18;2.80;;;1.67;;
15077;SDS011;7638;49.760;8.646;2023-04-03T07:48:43;2.93;;;1.90;;
15077;SDS011;7638;49.760;8.646;2023-04-03T07:51:10;2.20;;;1.80;;
15077;SDS011;7638;49.760;8.646;2023-04-03T07:53:36;3.30;;;1.90;;
15077;SDS011;7638;49.760;8.646;2023-04-03T07:56:02;4.23;;;1.70;;
15077;SDS011;7638;49.760;8.646;2023-04-03T07:58:28;5.87;;;1.43;;
15077;SDS011;7638;49.760;8.646;2023-04-03T08:00:59;5.60;;;1.80;;
15077;SDS011;7638;49.760;8.646;2023-04-03T08:03:25;3.20;;;1.90;;
15077;SDS011;7638;49.760;8.646;2023-04-03T08:05:53;5.53;;;1.30;;
15077;SDS011;7638;49.760;8.646;2023-04-03T08:08:28;1.80;;;1.50;;
15077;SDS011;7638;49.760;8.646;2023-04-03T08:13:58;3.17;;;1.63;;
15077;SDS011;7638;49.760;8.646;2023-04-03T08:16:25;4.00;;;1.67;;
15077;SDS011;7638;49.760;8.646;2023-04-03T08:18:52;6.00;;;2.00;;
15077;SDS011;7638;49.760;8.646;2023-04-03T08:21:18;2.43;;;1.60;;
15077;SDS011;7638;49.760;8.646;2023-04-03T08:23:44;5.10;;;1.77;;
15077;SDS011;7638;49.760;8.646;2023-04-03T08:26:14;3.47;;;1.77;;
15077;SDS011;7638;49.760;8.646;2023-04-03T08:28:40;0.90;;;0.90;;
15077;SDS011;7638;49.760;8.646;2023-04-03T08:31:07;1.93;;;1.43;;
15077;SDS011;7638;49.760;8.646;2023-04-03T08:33:35;3.77;;;1.67;;
15077;SDS011;7638;49.760;8.646;2023-04-03T08:36:03;3.33;;;1.40;;
15077;SDS011;7638;49.760;8.646;2023-04-03T08:38:29;2.07;;;1.33;;
15077;SDS011;7638;49.760;8.646;2023-04-03T08:41:15;1.73;;;1.33;;
15077;SDS011;7638;49.760;8.646;2023-04-03T08:46:11;3.63;;;1.47;;
15077;SDS011;7638;49.760;8.646;2023-04-03T08:48:41;4.33;;;1.40;;
15077;SDS011;7638;49.760;8.646;2023-04-03T08:51:14;4.77;;;1.50;;
15077;SDS011;7638;49.760;8.646;2023-04-03T08:53:46;1.67;;;1.20;;
15077;SDS011;7638;49.760;8.646;2023-04-03T08:56:20;2.00;;;1.27;;
15077;SDS011;7638;49.760;8.646;2023-04-03T08:58:49;1.60;;;1.50;;
15077;SDS011;7638;49.760;8.646;2023-04-03T09:01:33;2.10;;;1.70;;
15077;SDS011;7638;49.760;8.646;2023-04-03T09:04:05;2.63;;;1.33;;
15077;SDS011;7638;49.760;8.646;2023-04-03T09:06:35;2.47;;;1.30;;
15077;SDS011;7638;49.760;8.646;2023-04-03T09:14:38;2.73;;;1.43;;
15077;SDS011;7638;49.760;8.646;2023-04-03T09:22:37;3.17;;;1.37;;
15077;SDS011;7638;49.760;8.646;2023-04-03T09:27:44;2.37;;;0.90;;
15077;SDS011;7638;49.760;8.646;2023-04-03T09:30:21;3.70;;;1.40;;
15077;SDS011;7638;49.760;8.646;2023-04-03T09:32:49;1.30;;;0.90;;
15077;SDS011;7638;49.760;8.646;2023-04-03T09:35:18;8.70;;;1.30;;
15077;SDS011;7638;49.760;8.646;2023-04-03T09:37:46;1.63;;;1.40;;
15077;SDS011;7638;49.760;8.646;2023-04-03T09:42:50;2.27;;;1.20;;
15077;SDS011;7638;49.760;8.646;2023-04-03T09:50:33;2.43;;;1.43;;
15077;SDS011;7638;49.760;8.646;2023-04-03T09:53:01;2.67;;;1.60;;
15077;SDS011;7638;49.760;8.646;2023-04-03T09:55:30;1.40;;;0.97;;
15077;SDS011;7638;49.760;8.646;2023-04-03T09:58:03;1.13;;;1.00;;
15077;SDS011;7638;49.760;8.646;2023-04-03T10:00:30;3.47;;;1.40;;
15077;SDS011;7638;49.760;8.646;2023-04-03T10:02:57;2.60;;;1.20;;
15077;SDS011;7638;49.760;8.646;2023-04-03T10:05:41;2.43;;;1.20;;
15077;SDS011;7638;49.760;8.646;2023-04-03T10:10:43;3.67;;;1.77;;
15077;SDS011;7638;49.760;8.646;2023-04-03T10:13:11;4.20;;;1.53;;
15077;SDS011;7638;49.760;8.646;2023-04-03T10:15:46;2.50;;;1.10;;
15077;SDS011;7638;49.760;8.646;2023-04-03T10:20:57;1.00;;;0.70;;
15077;SDS011;7638;49.760;8.646;2023-04-03T10:23:31;4.30;;;1.23;;
15077;SDS011;7638;49.760;8.646;2023-04-03T10:31:48;2.37;;;1.10;;
15077;SDS011;7638;49.760;8.646;2023-04-03T10:34:06;1.60;;;1.17;;
15077;SDS011;7638;49.760;8.646;2023-04-03T10:41:57;3.07;;;1.27;;
15077;SDS011;7638;49.760;8.646;2023-04-03T10:52:48;4.57;;;1.63;;
15077;SDS011;7638;49.760;8.646;2023-04-03T10:57:54;2.87;;;1.33;;
15077;SDS011;7638;49.760;8.646;2023-04-03T11:00:24;2.43;;;1.20;;
15077;SDS011;7638;49.760;8.646;2023-04-03T11:02:55;4.37;;;1.43;;
15077;SDS011;7638;49.760;8.646;2023-04-03T11:05:34;4.00;;;1.27;;
15077;SDS011;7638;49.760;8.646;2023-04-03T11:08:03;3.60;;;1.30;;
15077;SDS011;7638;49.760;8.646;2023-04-03T11:10:35;3.37;;;1.60;;
15077;SDS011;7638;49.760;8.646;2023-04-03T11:13:06;3.67;;;1.20;;
15077;SDS011;7638;49.760;8.646;2023-04-03T11:15:33;1.10;;;1.00;;
15077;SDS011;7638;49.760;8.646;2023-04-03T11:18:34;6.37;;;1.17;;
15077;SDS011;7638;49.760;8.646;2023-04-03T11:21:02;1.63;;;1.07;;
15077;SDS011;7638;49.760;8.646;2023-04-03T11:23:36;2.93;;;1.37;;
15077;SDS011;7638;49.760;8.646;2023-04-03T11:26:12;1.47;;;1.00;;
15077;SDS011;7638;49.760;8.646;2023-04-03T11:28:39;1.67;;;1.13;;
15077;SDS011;7638;49.760;8.646;2023-04-03T11:31:23;2.47;;;1.30;;
15077;SDS011;7638;49.760;8.646;2023-04-03T11:36:41;3.17;;;1.40;;
15077;SDS011;7638;49.760;8.646;2023-04-03T11:39:20;1.40;;;1.20;;
15077;SDS011;7638;49.760;8.646;2023-04-03T11:41:48;2.90;;;1.30;;
15077;SDS011;7638;49.760;8.646;2023-04-03T11:47:00;3.17;;;1.20;;
15077;SDS011;7638;49.760;8.646;2023-04-03T11:49:50;1.40;;;1.07;;
15077;SDS011;7638;49.760;8.646;2023-04-03T11:52:53;1.40;;;1.30;;
15077;SDS011;7638;49.760;8.646;2023-04-03T11:55:01;6.57;;;1.40;;
15077;SDS011;7638;49.760;8.646;2023-04-03T12:03:00;1.77;;;1.27;;
15077;SDS011;7638;49.760;8.646;2023-04-03T12:05:27;1.90;;;1.23;;
15077;SDS011;7638;49.760;8.646;2023-04-03T12:10:41;3.57;;;1.80;;
15077;SDS011;7638;49.760;8.646;2023-04-03T12:13:13;2.87;;;1.70;;
15077;SDS011;7638;49.760;8.646;2023-04-03T12:15:44;1.77;;;1.27;;
15077;SDS011;7638;49.760;8.646;2023-04-03T12:20:57;3.17;;;1.60;;
15077;SDS011;7638;49.760;8.646;2023-04-03T12:25:59;2.33;;;1.30;;
15077;SDS011;7638;49.760;8.646;2023-04-03T12:28:28;2.07;;;1.53;;
15077;SDS011;7638;49.760;8.646;2023-04-03T12:30:54;2.43;;;1.17;;
15077;SDS011;7638;49.760;8.646;2023-04-03T12:33:27;2.97;;;1.40;;
15077;SDS011;7638;49.760;8.646;2023-04-03T12:36:02;1.57;;;1.20;;
15077;SDS011;7638;49.760;8.646;2023-04-03T12:48:37;3.67;;;1.30;;
15077;SDS011;7638;49.760;8.646;2023-04-03T12:51:04;2.57;;;1.40;;
15077;SDS011;7638;49.760;8.646;2023-04-03T12:53:34;3.43;;;1.43;;
15077;SDS011;7638;49.760;8.646;2023-04-03T12:56:21;2.77;;;1.40;;
15077;SDS011;7638;49.760;8.646;2023-04-03T12:58:49;2.63;;;1.43;;
15077;SDS011;7638;49.760;8.646;2023-04-03T13:01:16;2.07;;;1.37;;
15077;SDS011;7638;49.760;8.646;2023-04-03T13:03:45;2.60;;;1.30;;
15077;SDS011;7638;49.760;8.646;2023-04-03T13:06:14;2.03;;;1.30;;
15077;SDS011;7638;49.760;8.646;2023-04-03T13:08:56;2.43;;;1.20;;
15077;SDS011;7638;49.760;8.646;2023-04-03T13:11:24;3.37;;;1.40;;
15077;SDS011;7638;49.760;8.646;2023-04-03T13:13:54;3.20;;;1.40;;
15077;SDS011;7638;49.760;8.646;2023-04-03T13:16:21;2.57;;;1.40;;
15077;SDS011;7638;49.760;8.646;2023-04-03T13:18:51;2.23;;;1.53;;
15077;SDS011;7638;49.760;8.646;2023-04-03T13:21:19;4.10;;;1.47;;
15077;SDS011;7638;49.760;8.646;2023-04-03T13:23:46;2.27;;;1.33;;
15077;SDS011;7638;49.760;8.646;2023-04-03T13:26:15;1.40;;;1.07;;
15077;SDS011;7638;49.760;8.646;2023-04-03T13:28:41;2.70;;;1.50;;
15077;SDS011;7638;49.760;8.646;2023-04-03T13:33:38;1.87;;;1.10;;
15077;SDS011;7638;49.760;8.646;2023-04-03T13:36:13;3.97;;;1.20;;
15077;SDS011;7638;49.760;8.646;2023-04-03T13:38:42;1.73;;;1.20;;
15077;SDS011;7638;49.760;8.646;2023-04-03T13:41:25;4.83;;;1.57;;
15077;SDS011;7638;49.760;8.646;2023-04-03T13:43:52;1.67;;;1.30;;
15077;SDS011;7638;49.760;8.646;2023-04-03T13:48:45;2.57;;;1.37;;
15077;SDS011;7638;49.760;8.646;2023-04-03T13:53:42;2.80;;;1.43;;
15077;SDS011;7638;49.760;8.646;2023-04-03T13:56:13;2.27;;;1.40;;
15077;SDS011;7638;49.760;8.646;2023-04-03T13:58:51;2.03;;;1.40;;
15077;SDS011;7638;49.760;8.646;2023-04-03T14:01:18;2.10;;;1.63;;
15077;SDS011;7638;49.760;8.646;2023-04-03T14:06:15;2.20;;;1.10;;
15077;SDS011;7638;49.760;8.646;2023-04-03T14:08:41;1.20;;;1.10;;
15077;SDS011;7638;49.760;8.646;2023-04-03T14:11:13;2.50;;;1.67;;
15077;SDS011;7638;49.760;8.646;2023-04-03T14:13:39;2.67;;;1.70;;
15077;SDS011;7638;49.760;8.646;2023-04-03T14:16:06;1.53;;;1.40;;
15077;SDS011;7638;49.760;8.646;2023-04-03T14:18:32;1.67;;;1.20;;
15077;SDS011;7638;49.760;8.646;2023-04-03T14:20:58;1.33;;;1.10;;
15077;SDS011;7638;49.760;8.646;2023-04-03T14:23:24;6.47;;;1.47;;
15077;SDS011;7638;49.760;8.646;2023-04-03T14:25:50;2.77;;;1.50;;
15077;SDS011;7638;49.760;8.646;2023-04-03T14:28:17;2.03;;;1.60;;
15077;SDS011;7638;49.760;8.646;2023-04-03T14:30:44;3.23;;;1.47;;
15077;SDS011;7638;49.760;8.646;2023-04-03T14:33:15;2.73;;;1.53;;
15077;SDS011;7638;49.760;8.646;2023-04-03T14:35:41;3.70;;;1.43;;
15077;SDS011;7638;49.760;8.646;2023-04-03T14:41:06;1.87;;;1.40;;
15077;SDS011;7638;49.760;8.646;2023-04-03T14:43:32;2.20;;;1.33;;
15077;SDS011;7638;49.760;8.646;2023-04-03T14:45:58;2.17;;;1.63;;
15077;SDS011;7638;49.760;8.646;2023-04-03T14:48:25;2.17;;;1.20;;
15077;SDS011;7638;49.760;8.646;2023-04-03T14:50:53;3.13;;;1.33;;
15077;SDS011;7638;49.760;8.646;2023-04-03T14:53:19;3.70;;;1.83;;
15077;SDS011;7638;49.760;8.646;2023-04-03T14:55:51;1.83;;;1.47;;
15077;SDS011;7638;49.760;8.646;2023-04-03T14:58:18;1.83;;;1.30;;
15077;SDS011;7638;49.760;8.646;2023-04-03T15:00:45;2.27;;;1.50;;
15077;SDS011;7638;49.760;8.646;2023-04-03T15:03:18;2.00;;;1.50;;
15077;SDS011;7638;49.760;8.646;2023-04-03T15:05:45;1.43;;;1.20;;
15077;SDS011;7638;49.760;8.646;2023-04-03T15:08:19;2.00;;;1.40;;
15077;SDS011;7638;49.760;8.646;2023-04-03T15:10:46;1.50;;;1.30;;
15077;SDS011;7638;49.760;8.646;2023-04-03T15:13:13;4.33;;;1.87;;
15077;SDS011;7638;49.760;8.646;2023-04-03T15:15:39;1.60;;;1.20;;
15077;SDS011;7638;49.760;8.646;2023-04-03T15:18:05;1.80;;;1.40;;
15077;SDS011;7638;49.760;8.646;2023-04-03T15:20:32;1.47;;;1.00;;
15077;SDS011;7638;49.760;8.646;2023-04-03T15:22:59;2.37;;;1.10;;
15077;SDS011;7638;49.760;8.646;2023-04-03T15:25:29;2.40;;;1.13;;
15077;SDS011;7638;49.760;8.646;2023-04-03T15:27:56;2.27;;;1.40;;
15077;SDS011;7638;49.760;8.646;2023-04-03T15:30:22;2.00;;;1.37;;
15077;SDS011;7638;49.760;8.646;2023-04-03T15:32:48;1.17;;;0.87;;
15077;SDS011;7638;49.760;8.646;2023-04-03T15:35:14;2.10;;;1.30;;
15077;SDS011;7638;49.760;8.646;2023-04-03T15:37:41;2.30;;;1.40;;
15077;SDS011;7638;49.760;8.646;2023-04-03T15:40:07;1.83;;;1.10;;
15077;SDS011;7638;49.760;8.646;2023-04-03T15:42:34;1.43;;;1.07;;
15077;SDS011;7638;49.760;8.646;2023-04-03T15:45:00;1.60;;;1.20;;
15077;SDS011;7638;49.760;8.646;2023-04-03T15:47:26;1.57;;;1.30;;
15077;SDS011;7638;49.760;8.646;2023-04-03T15:49:53;4.00;;;1.30;;
15077;SDS011;7638;49.760;8.646;2023-04-03T15:52:19;2.33;;;1.40;;
15077;SDS011;7638;49.760;8.646;2023-04-03T15:54:45;1.50;;;0.90;;
15077;SDS011;7638;49.760;8.646;2023-04-03T15:57:11;2.40;;;1.20;;
15077;SDS011;7638;49.760;8.646;2023-04-03T15:59:37;1.03;;;0.93;;
15077;SDS011;7638;49.760;8.646;2023-04-03T16:02:04;1.43;;;1.20;;
15077;SDS011;7638;49.760;8.646;2023-04-03T16:04:32;3.50;;;1.40;;
15077;SDS011;7638;49.760;8.646;2023-04-03T16:07:00;2.43;;;1.53;;
15077;SDS011;7638;49.760;8.646;2023-04-03T16:09:26;2.80;;;1.47;;
15077;SDS011;7638;49.760;8.646;2023-04-03T16:11:52;2.67;;;1.53;;
15077;SDS011;7638;49.760;8.646;2023-04-03T16:14:18;1.30;;;1.20;;
15077;SDS011;7638;49.760;8.646;2023-04-03T16:16:45;2.60;;;1.57;;
15077;SDS011;7638;49.760;8.646;2023-04-03T16:19:11;2.30;;;1.43;;
15077;SDS011;7638;49.760;8.646;2023-04-03T16:21:38;3.80;;;1.97;;
15077;SDS011;7638;49.760;8.646;2023-04-03T16:24:04;2.30;;;1.53;;
15077;SDS011;7638;49.760;8.646;2023-04-03T16:26:30;3.03;;;1.80;;
15077;SDS011;7638;49.760;8.646;2023-04-03T16:28:56;1.93;;;1.40;;
15077;SDS011;7638;49.760;8.646;2023-04-03T16:31:22;2.30;;;1.20;;
15077;SDS011;7638;49.760;8.646;2023-04-03T16:33:49;3.00;;;1.50;;
15077;SDS011;7638;49.760;8.646;2023-04-03T16:36:15;4.90;;;1.93;;
15077;SDS011;7638;49.760;8.646;2023-04-03T16:38:41;7.60;;;2.23;;
15077;SDS011;7638;49.760;8.646;2023-04-03T16:41:07;3.00;;;1.80;;
15077;SDS011;7638;49.760;8.646;2023-04-03T16:43:33;2.47;;;1.70;;